Time;durP1;ratioP1;P1;durP2;ratioP2;P2;SDS_P1;SDS_P2;PMS_P1;PMS_P2;Temp;Humidity;BMP_temperature;BMP_pressure;BME280_temperature;BME280_humidity;BME280_pressure;Samples;Min_cycle;Max_cycle;Signal;HPM_P1;HPM_P2
2022/08/25 00:08:06;;;;;;;8.02;3.65;;;;;;;22.75;72.42;100576.88;18431014;32;20368;-56
2022/08/25 00:18:10;;;;;;;13.18;4.57;;;;;;;22.62;73.12;100562.50;18429904;32;20162;-56
2022/08/25 00:28:22;;;;;;;8.90;3.55;;;;;;;22.78;72.61;100558.13;18430199;32;20079;-56
2022/08/25 00:38:27;;;;;;;10.23;3.72;;;;;;;22.64;72.61;100556.16;18429553;32;20195;-56
2022/08/25 00:48:30;;;;;;;10.18;3.30;;;;;;;22.51;72.24;100547.06;18428760;32;20381;-56
2022/08/25 00:58:36;;;;;;;12.13;3.80;;;;;;;22.42;72.05;100538.56;18428299;32;20461;-56
2022/08/25 01:08:39;;;;;;;12.73;3.72;;;;;;;22.42;71.67;100553.69;18427560;32;20433;-56
2022/08/25 01:18:46;;;;;;;9.73;3.67;;;;;;;22.30;71.64;100539.19;18426665;32;20092;-56
2022/08/25 01:39:13;;;;;;;7.78;3.05;;;;;;;22.03;71.78;100551.09;18436606;32;20119;-56
2022/08/25 01:49:18;;;;;;;7.95;3.22;;;;;;;21.91;71.73;100533.09;18436349;32;20111;-56
2022/08/25 01:59:22;;;;;;;10.23;3.45;;;;;;;21.86;71.40;100535.97;18435054;32;20162;-56
2022/08/25 02:09:28;;;;;;;8.73;3.15;;;;;;;21.88;71.42;100541.19;18434852;32;20366;-55
2022/08/25 02:19:31;;;;;;;9.32;3.37;;;;;;;21.67;71.18;100540.38;18434162;32;20097;-55
2022/08/25 02:29:36;;;;;;;7.55;3.58;;;;;;;21.35;72.02;100539.13;18435175;32;20089;-55
2022/08/25 02:39:39;;;;;;;9.00;3.85;;;;;;;21.45;71.90;100531.63;18433229;32;20162;-55
2022/08/25 02:49:44;;;;;;;7.12;3.15;;;;;;;21.36;72.18;100521.41;18433501;32;20100;-55
2022/08/25 02:59:47;;;;;;;8.38;3.03;;;;;;;21.32;72.12;100526.00;18434216;32;20085;-55
2022/08/25 03:09:52;;;;;;;9.23;3.72;;;;;;;21.42;70.64;100531.72;18434277;32;20093;-55
2022/08/25 03:19:55;;;;;;;11.00;4.40;;;;;;;21.01;71.85;100526.50;18432638;32;20105;-55
2022/08/25 03:30:02;;;;;;;9.90;3.85;;;;;;;21.07;71.65;100526.25;18432758;32;20441;-55
2022/08/25 03:40:09;;;;;;;10.57;3.80;;;;;;;21.05;71.66;100531.59;18432493;32;20425;-55
2022/08/25 03:50:21;;;;;;;10.75;4.55;;;;;;;20.93;71.48;100522.38;18414162;32;20392;-54
2022/08/25 04:00:24;;;;;;;10.65;4.35;;;;;;;20.83;72.17;100523.72;18429091;32;20361;-55
2022/08/25 04:10:29;;;;;;;11.57;4.60;;;;;;;20.95;72.05;100518.81;18431292;32;20126;-55
2022/08/25 04:20:33;;;;;;;9.55;3.80;;;;;;;20.93;71.45;100525.03;18431239;32;20111;-55
2022/08/25 04:30:41;;;;;;;12.90;4.57;;;;;;;20.84;72.02;100525.44;18432991;32;20361;-55
2022/08/25 04:40:44;;;;;;;11.65;4.07;;;;;;;21.13;71.59;100523.28;18450708;32;20097;-55
2022/08/25 04:50:50;;;;;;;9.93;4.00;;;;;;;21.40;71.20;100525.63;18428594;32;20093;-55
2022/08/25 05:00:53;;;;;;;10.02;4.03;;;;;;;21.66;71.26;100520.91;18427982;32;20090;-55
2022/08/25 05:10:58;;;;;;;9.93;4.30;;;;;;;21.86;71.26;100511.19;18437298;32;20096;-54
2022/08/25 05:21:06;;;;;;;14.65;6.15;;;;;;;22.14;71.62;100520.47;18432597;32;20119;-55
2022/08/25 05:31:13;;;;;;;10.73;4.80;;;;;;;22.54;71.84;100517.66;18426341;32;20107;-55
2022/08/25 05:41:20;;;;;;;14.02;5.53;;;;;;;22.98;72.51;100521.63;18432955;32;20107;-55
2022/08/25 05:51:26;;;;;;;11.38;4.85;;;;;;;23.46;72.08;100508.44;18435346;32;20093;-55
2022/08/25 06:11:52;;;;;;;12.65;5.37;;;;;;;25.64;65.21;100498.41;18434834;32;20089;-55
2022/08/25 06:21:58;;;;;;;12.07;4.85;;;;;;;26.72;62.58;100509.16;18433700;32;20141;-55
2022/08/25 06:32:03;;;;;;;10.90;4.00;;;;;;;27.56;60.67;100516.75;18434033;32;20162;-55
2022/08/25 06:42:06;;;;;;;9.00;3.60;;;;;;;27.62;60.04;100514.63;18433898;32;20092;-55
2022/08/25 06:52:11;;;;;;;9.48;3.50;;;;;;;27.73;59.15;100527.22;18420266;32;20350;-55
2022/08/25 07:02:14;;;;;;;11.45;3.47;;;;;;;28.02;57.58;100522.41;18433352;32;20115;-55
2022/08/25 07:12:25;;;;;;;10.70;2.97;;;;;;;29.06;54.44;100511.91;18431660;32;77861;-55
2022/08/25 07:22:28;;;;;;;9.05;3.33;;;;;;;29.60;52.70;100516.69;18432693;32;20085;-55
2022/08/25 07:32:33;;;;;;;10.02;3.33;;;;;;;29.61;52.18;100513.03;18431742;32;20084;-55
2022/08/25 07:42:36;;;;;;;10.10;3.35;;;;;;;29.69;51.44;100510.56;18432439;32;20105;-55
2022/08/25 07:52:41;;;;;;;8.70;3.22;;;;;;;29.77;51.67;100510.75;18431959;32;20112;-55
2022/08/25 08:02:44;;;;;;;9.63;3.00;;;;;;;28.70;51.61;100520.97;18432538;32;20115;-55
2022/08/25 08:12:49;;;;;;;8.35;3.20;;;;;;;29.04;52.40;100508.47;18430948;32;20175;-55
2022/08/25 08:22:53;;;;;;;10.38;3.42;;;;;;;29.77;49.60;100513.44;18415784;32;20162;-55
2022/08/25 08:32:58;;;;;;;8.98;2.70;;;;;;;30.41;49.08;100502.88;18415598;32;20097;-55
2022/08/25 08:43:17;;;;;;;7.93;2.50;;;;;;;29.83;49.38;100509.44;18435354;32;20453;-55
2022/08/25 08:53:27;;;;;;;9.55;2.72;;;;;;;29.77;48.10;100504.53;18437045;32;20201;-55
2022/08/25 09:03:38;;;;;;;7.70;2.67;;;;;;;29.84;48.62;100496.81;18436655;32;20089;-55
2022/08/25 09:13:55;;;;;;;6.90;2.50;;;;;;;29.83;47.75;100498.66;18422211;32;20093;-55
2022/08/25 09:24:11;;;;;;;6.50;2.22;;;;;;;29.92;47.31;100486.28;18435441;32;20391;-55
2022/08/25 09:34:20;;;;;;;8.57;2.42;;;;;;;31.19;44.42;100479.19;18437255;32;20384;-55
2022/08/25 09:44:25;;;;;;;6.25;2.00;;;;;;;30.80;43.84;100463.72;18435543;32;20088;-55
2022/08/25 09:54:30;;;;;;;8.45;2.20;;;;;;;31.03;42.07;100444.66;18434611;32;20097;-55
2022/08/25 10:04:48;;;;;;;6.68;2.35;;;;;;;30.40;43.16;100444.59;18420565;32;20101;-55
2022/08/25 10:14:54;;;;;;;6.47;2.10;;;;;;;31.39;41.55;100429.72;18434576;32;20357;-55
2022/08/25 10:24:59;;;;;;;5.05;1.80;;;;;;;31.51;38.17;100413.44;18434341;32;20361;-55
2022/08/25 10:35:13;;;;;;;5.03;1.80;;;;;;;32.71;37.52;100411.34;18434335;32;20112;-55
2022/08/25 10:55:52;;;;;;;6.07;2.20;;;;;;;33.81;35.15;100380.81;18433924;32;20218;-55
2022/08/25 11:05:58;;;;;;;7.22;2.17;;;;;;;33.47;34.66;100376.09;18418565;32;20104;-56
2022/08/25 11:16:10;;;;;;;6.60;2.20;;;;;;;34.26;36.19;100365.44;18433060;32;20142;-55
2022/08/25 11:26:28;;;;;;;3.97;2.00;;;;;;;33.72;35.58;100360.97;18432735;32;20123;-55
2022/08/25 11:36:39;;;;;;;6.15;2.10;;;;;;;33.22;36.52;100346.09;18432451;32;20438;-55
2022/08/25 11:46:51;;;;;;;6.50;2.30;;;;;;;34.21;34.13;100323.59;18432255;32;20120;-55
2022/08/25 11:57:00;;;;;;;6.55;2.05;;;;;;;33.82;36.75;100317.56;18432849;32;20459;-55
2022/08/25 12:07:23;;;;;;;6.65;2.28;;;;;;;33.11;35.60;100297.66;18431108;32;20142;-55
2022/08/25 12:17:38;;;;;;;7.32;2.40;;;;;;;33.37;37.61;100302.28;18292126;32;20183;-55
2022/08/25 12:27:45;;;;;;;7.22;2.47;;;;;;;33.73;39.37;100296.84;18304872;32;20084;-55
2022/08/25 12:38:03;;;;;;;6.57;2.12;;;;;;;33.06;37.29;100282.72;18429827;32;20093;-56
2022/08/25 12:48:40;;;;;;;9.07;3.35;;;;;;;34.41;35.47;100276.28;18428689;32;20097;-56
2022/08/25 12:58:51;;;;;;;6.25;2.40;;;;;;;33.96;35.89;100270.09;18414155;32;20119;-55
2022/08/25 13:09:52;;;;;;;6.43;2.20;;;;;;;34.29;37.53;100259.47;18427739;32;20119;-56
2022/08/25 13:20:12;;;;;;;5.90;2.03;;;;;;;34.59;36.66;100259.09;18412735;32;20101;-56
2022/08/25 13:30:24;;;;;;;5.95;2.45;;;;;;;34.98;35.36;100241.41;18433778;32;20179;-56
2022/08/25 13:40:32;;;;;;;6.95;2.67;;;;;;;35.16;35.50;100245.84;18421587;32;20112;-56
2022/08/25 13:50:36;;;;;;;;;;;;;;;35.15;33.98;100228.72;18435679;32;20361;-56
2022/08/25 14:00:45;;;;;;;7.53;2.50;;;;;;;35.62;33.93;100231.78;18435611;32;20119;-56
2022/08/25 14:10:49;;;;;;;15.05;2.60;;;;;;;35.08;35.76;100225.84;18420742;32;20093;-56
2022/08/25 14:20:55;;;;;;;6.20;2.17;;;;;;;35.06;35.01;100216.16;18434277;32;20097;-56
2022/08/25 14:31:00;;;;;;;8.15;2.33;;;;;;;34.91;36.06;100213.25;18419712;32;20146;-55
2022/08/25 14:41:08;;;;;;;7.53;2.72;;;;;;;34.80;35.16;100207.16;18419231;32;20119;-56
2022/08/25 14:51:12;;;;;;;8.65;2.22;;;;;;;34.77;35.63;100195.78;18433682;32;20150;-56
2022/08/25 15:01:21;;;;;;;8.40;2.37;;;;;;;34.73;35.56;100184.44;18433415;32;20109;-55
2022/08/25 15:11:32;;;;;;;7.72;2.58;;;;;;;34.16;35.89;100192.22;18434339;32;20085;-55
2022/08/25 15:21:38;;;;;;;4.75;2.00;;;;;;;33.78;36.72;100185.41;18432664;32;20101;-56
2022/08/25 15:31:42;;;;;;;5.87;2.33;;;;;;;33.96;36.07;100186.16;18432831;32;20088;-55
2022/08/25 15:41:50;;;;;;;6.05;2.03;;;;;;;33.68;36.10;100174.72;18433156;32;20720;-55
2022/08/25 15:51:55;;;;;;;8.20;2.50;;;;;;;32.99;38.82;100180.78;18431011;32;20499;-56
2022/08/25 16:02:00;;;;;;;5.82;2.40;;;;;;;33.32;37.67;100175.63;18431649;32;20166;-55
2022/08/25 16:12:06;;;;;;;7.28;2.65;;;;;;;33.14;38.82;100168.38;18430860;32;20089;-55
2022/08/25 16:22:12;;;;;;;6.78;2.60;;;;;;;32.98;40.33;100158.28;18430460;32;20108;-55
2022/08/25 16:32:15;;;;;;;6.62;2.55;;;;;;;32.65;41.72;100163.38;18430209;32;20105;-55
2022/08/25 16:42:20;;;;;;;5.32;2.15;;;;;;;32.47;42.17;100166.91;18429441;32;20093;-55
2022/08/25 17:02:48;;;;;;;8.02;2.25;;;;;;;31.99;43.89;100162.63;18433743;32;20110;-55
2022/08/25 17:12:51;;;;;;;6.50;2.30;;;;;;;31.89;44.06;100160.81;18436625;32;20459;-55
2022/08/25 17:22:56;;;;;;;7.60;2.20;;;;;;;31.41;45.82;100173.41;18436031;32;20093;-56
2022/08/25 17:33:00;;;;;;;8.95;3.15;;;;;;;30.96;47.70;100172.16;18436261;32;20111;-56
2022/08/25 17:43:05;;;;;;;7.18;3.33;;;;;;;30.52;49.93;100178.75;18435644;32;20112;-55
2022/08/25 17:53:12;;;;;;;9.85;3.03;;;;;;;29.98;53.18;100184.41;18434837;32;20089;-56
2022/08/25 18:03:19;;;;;;;8.32;3.25;;;;;;;29.48;54.38;100194.03;18418715;32;20133;-55
2022/08/25 18:13:22;;;;;;;7.47;2.92;;;;;;;29.04;55.68;100194.09;18418796;32;20365;-56
2022/08/25 18:23:28;;;;;;;9.60;2.83;;;;;;;28.72;56.41;100203.00;18430668;32;20473;-55
2022/08/25 18:33:31;;;;;;;10.25;3.50;;;;;;;28.34;57.83;100202.44;18432637;32;20136;-56
2022/08/25 18:43:36;;;;;;;9.27;3.28;;;;;;;28.01;58.90;100209.50;18433915;32;20101;-55
2022/08/25 18:53:40;;;;;;;9.90;3.35;;;;;;;27.68;59.10;100203.13;18433593;32;20085;-56
2022/08/25 19:03:53;;;;;;;9.13;3.08;;;;;;;27.46;59.65;100207.44;18433389;32;20085;-55
2022/08/25 19:13:58;;;;;;;9.45;3.85;;;;;;;27.21;60.78;100205.78;18418319;32;20100;-56
2022/08/25 19:24:03;;;;;;;7.45;3.40;;;;;;;27.10;61.62;100207.47;18430666;32;20139;-55
2022/08/25 19:34:08;;;;;;;9.40;3.50;;;;;;;26.96;62.64;100203.13;18417966;32;20107;-55
2022/08/25 19:44:13;;;;;;;9.95;4.00;;;;;;;26.82;63.15;100211.31;18433149;32;20397;-55
2022/08/25 19:54:20;;;;;;;11.63;4.53;;;;;;;26.65;63.20;100213.37;18417537;32;20139;-55
2022/08/25 20:04:24;;;;;;;9.38;3.58;;;;;;;26.32;63.64;100217.56;18429261;32;20133;-55
2022/08/25 20:14:27;;;;;;;13.15;3.50;;;;;;;26.12;64.28;100214.47;18427835;32;20140;-55
2022/08/25 20:24:50;;;;;;;10.48;3.72;;;;;;;26.10;64.65;100224.41;18427471;32;20097;-56
2022/08/25 20:35:00;;;;;;;8.77;3.55;;;;;;;26.01;65.23;100220.56;18425929;32;20353;-55
2022/08/25 20:45:06;;;;;;;9.43;4.05;;;;;;;25.85;65.90;100227.97;18426410;32;20121;-55
2022/08/25 20:55:10;;;;;;;8.60;3.40;;;;;;;25.88;65.37;100227.75;18425960;32;20108;-55
2022/08/25 21:05:16;;;;;;;7.22;3.42;;;;;;;25.61;65.86;100226.87;18424887;32;20181;-56
2022/08/25 21:15:19;;;;;;;12.02;3.80;;;;;;;25.58;66.01;100219.03;18422632;32;20104;-55
2022/08/25 21:25:24;;;;;;;14.25;4.85;;;;;;;25.47;66.42;100226.91;18426555;32;20097;-56
2022/08/25 21:35:27;;;;;;;9.50;4.32;;;;;;;25.31;66.58;100219.94;18412154;32;20101;-55
2022/08/25 21:45:38;;;;;;;9.52;4.22;;;;;;;25.13;67.35;100218.47;18427655;32;20110;-55
2022/08/25 21:55:49;;;;;;;10.38;4.45;;;;;;;25.05;67.32;100219.00;18435145;32;20093;-55
2022/08/25 22:05:53;;;;;;;10.43;3.95;;;;;;;24.98;67.34;100207.00;18435203;32;20090;-55
2022/08/25 22:15:57;;;;;;;12.57;4.90;;;;;;;24.88;67.42;100206.78;18434620;32;20093;-55
2022/08/25 22:26:02;;;;;;;8.63;3.75;;;;;;;24.77;67.51;100205.63;18434256;32;20085;-55
2022/08/25 22:36:14;;;;;;;14.15;4.55;;;;;;;24.49;68.46;100222.56;18434431;32;20142;-55
2022/08/25 22:46:21;;;;;;;13.35;4.47;;;;;;;24.42;68.67;100219.44;18433803;32;20089;-55
2022/08/25 22:56:29;;;;;;;9.27;3.97;;;;;;;24.43;68.42;100210.47;18432989;32;20175;-55
2022/08/25 23:06:34;;;;;;;11.40;4.70;;;;;;;24.42;67.91;100200.75;18433331;32;20088;-55
2022/08/25 23:16:38;;;;;;;11.70;4.72;;;;;;;24.41;67.66;100198.19;18434065;32;20136;-55
2022/08/25 23:26:45;;;;;;;10.63;4.07;;;;;;;24.21;68.36;100192.31;18432673;32;20093;-56
2022/08/25 23:36:54;;;;;;;8.57;3.80;;;;;;;24.20;68.18;100202.13;18432770;32;20376;-55
2022/08/25 23:46:59;;;;;;;11.23;3.40;;;;;;;24.02;68.27;100179.25;18431953;32;20501;-55
2022/08/25 23:57:02;;;;;;;11.45;4.90;;;;;;;24.05;68.10;100184.41;18431823;32;20142;-55
